sensor_id;sensor_type;location;lat;lon;timestamp;P1;P2;P0
47741;PMS5003;33504;52.066;6.096;2024-02-26T00:00:36;23;23;
47741;PMS5003;33504;52.066;6.096;2024-02-26T00:03:04;21;20;
47741;PMS5003;33504;52.066;6.096;2024-02-26T00:05:31;23;21;
47741;PMS5003;33504;52.066;6.096;2024-02-26T00:07:58;21;21;
47741;PMS5003;33504;52.066;6.096;2024-02-26T00:10:25;24;23;
47741;PMS5003;33504;52.066;6.096;2024-02-26T00:12:52;20;20;
47741;PMS5003;33504;52.066;6.096;2024-02-26T00:15:19;19;18;
47741;PMS5003;33504;52.066;6.096;2024-02-26T00:17:46;20;19;
47741;PMS5003;33504;52.066;6.096;2024-02-26T00:20:14;22;20;
47741;PMS5003;33504;52.066;6.096;2024-02-26T00:22:41;21;20;
47741;PMS5003;33504;52.066;6.096;2024-02-26T00:25:08;18;18;
47741;PMS5003;33504;52.066;6.096;2024-02-26T00:27:36;19;19;
47741;PMS5003;33504;52.066;6.096;2024-02-26T00:30:03;18;18;
47741;PMS5003;33504;52.066;6.096;2024-02-26T00:32:32;17;17;
47741;PMS5003;33504;52.066;6.096;2024-02-26T00:34:58;17;17;
47741;PMS5003;33504;52.066;6.096;2024-02-26T00:37:26;18;17;
47741;PMS5003;33504;52.066;6.096;2024-02-26T00:39:53;18;17;
47741;PMS5003;33504;52.066;6.096;2024-02-26T00:42:19;18;17;
47741;PMS5003;33504;52.066;6.096;2024-02-26T00:44:47;19;17;
47741;PMS5003;33504;52.066;6.096;2024-02-26T00:47:14;16;15;
47741;PMS5003;33504;52.066;6.096;2024-02-26T00:49:41;16;15;
47741;PMS5003;33504;52.066;6.096;2024-02-26T00:52:08;15;14;
47741;PMS5003;33504;52.066;6.096;2024-02-26T00:54:35;15;14;
47741;PMS5003;33504;52.066;6.096;2024-02-26T00:57:02;16;15;
47741;PMS5003;33504;52.066;6.096;2024-02-26T00:59:29;15;15;
47741;PMS5003;33504;52.066;6.096;2024-02-26T01:01:56;15;15;
47741;PMS5003;33504;52.066;6.096;2024-02-26T01:04:24;16;16;
47741;PMS5003;33504;52.066;6.096;2024-02-26T01:06:51;15;15;
47741;PMS5003;33504;52.066;6.096;2024-02-26T01:09:18;17;16;
47741;PMS5003;33504;52.066;6.096;2024-02-26T01:11:45;17;16;
47741;PMS5003;33504;52.066;6.096;2024-02-26T01:14:12;17;15;
47741;PMS5003;33504;52.066;6.096;2024-02-26T01:16:39;17;16;
47741;PMS5003;33504;52.066;6.096;2024-02-26T01:19:06;17;17;
47741;PMS5003;33504;52.066;6.096;2024-02-26T01:21:33;21;19;
47741;PMS5003;33504;52.066;6.096;2024-02-26T01:24:01;16;15;
47741;PMS5003;33504;52.066;6.096;2024-02-26T01:26:28;17;16;
47741;PMS5003;33504;52.066;6.096;2024-02-26T01:28:55;16;16;
47741;PMS5003;33504;52.066;6.096;2024-02-26T01:31:23;17;17;
47741;PMS5003;33504;52.066;6.096;2024-02-26T01:33:49;17;17;
47741;PMS5003;33504;52.066;6.096;2024-02-26T01:36:17;16;16;
47741;PMS5003;33504;52.066;6.096;2024-02-26T01:38:44;17;17;
47741;PMS5003;33504;52.066;6.096;2024-02-26T01:41:13;16;16;
47741;PMS5003;33504;52.066;6.096;2024-02-26T01:43:40;21;19;
47741;PMS5003;33504;52.066;6.096;2024-02-26T01:46:07;18;17;
47741;PMS5003;33504;52.066;6.096;2024-02-26T01:48:39;20;20;
47741;PMS5003;33504;52.066;6.096;2024-02-26T01:51:06;17;17;
47741;PMS5003;33504;52.066;6.096;2024-02-26T01:53:34;17;17;
47741;PMS5003;33504;52.066;6.096;2024-02-26T01:56:02;20;20;
47741;PMS5003;33504;52.066;6.096;2024-02-26T01:58:29;19;17;
47741;PMS5003;33504;52.066;6.096;2024-02-26T02:00:57;18;18;
47741;PMS5003;33504;52.066;6.096;2024-02-26T02:03:25;19;19;
47741;PMS5003;33504;52.066;6.096;2024-02-26T02:05:52;20;19;
47741;PMS5003;33504;52.066;6.096;2024-02-26T02:08:20;17;16;
47741;PMS5003;33504;52.066;6.096;2024-02-26T02:10:49;19;19;
47741;PMS5003;33504;52.066;6.096;2024-02-26T02:13:16;19;18;
47741;PMS5003;33504;52.066;6.096;2024-02-26T02:15:43;20;19;
47741;PMS5003;33504;52.066;6.096;2024-02-26T02:18:10;22;21;
47741;PMS5003;33504;52.066;6.096;2024-02-26T02:20:38;20;18;
47741;PMS5003;33504;52.066;6.096;2024-02-26T02:23:05;21;20;
47741;PMS5003;33504;52.066;6.096;2024-02-26T02:25:32;22;21;
47741;PMS5003;33504;52.066;6.096;2024-02-26T02:28:00;18;17;
47741;PMS5003;33504;52.066;6.096;2024-02-26T02:30:29;22;22;
47741;PMS5003;33504;52.066;6.096;2024-02-26T02:32:57;23;23;
47741;PMS5003;33504;52.066;6.096;2024-02-26T02:35:24;20;19;
47741;PMS5003;33504;52.066;6.096;2024-02-26T02:37:51;20;19;
47741;PMS5003;33504;52.066;6.096;2024-02-26T02:40:19;24;24;
47741;PMS5003;33504;52.066;6.096;2024-02-26T02:42:46;24;23;
47741;PMS5003;33504;52.066;6.096;2024-02-26T02:45:12;23;23;
47741;PMS5003;33504;52.066;6.096;2024-02-26T02:47:40;21;21;
47741;PMS5003;33504;52.066;6.096;2024-02-26T02:50:07;17;16;
47741;PMS5003;33504;52.066;6.096;2024-02-26T02:52:35;19;19;
47741;PMS5003;33504;52.066;6.096;2024-02-26T02:55:03;20;19;
47741;PMS5003;33504;52.066;6.096;2024-02-26T02:57:30;21;21;
47741;PMS5003;33504;52.066;6.096;2024-02-26T02:59:59;21;19;
47741;PMS5003;33504;52.066;6.096;2024-02-26T03:02:26;21;20;
47741;PMS5003;33504;52.066;6.096;2024-02-26T03:04:53;17;17;
47741;PMS5003;33504;52.066;6.096;2024-02-26T03:07:20;19;19;
47741;PMS5003;33504;52.066;6.096;2024-02-26T03:09:47;20;19;
47741;PMS5003;33504;52.066;6.096;2024-02-26T03:12:15;20;20;
47741;PMS5003;33504;52.066;6.096;2024-02-26T03:14:41;19;19;
47741;PMS5003;33504;52.066;6.096;2024-02-26T03:17:09;21;20;
47741;PMS5003;33504;52.066;6.096;2024-02-26T03:19:36;17;16;
47741;PMS5003;33504;52.066;6.096;2024-02-26T03:22:04;20;18;
47741;PMS5003;33504;52.066;6.096;2024-02-26T03:24:31;18;18;
47741;PMS5003;33504;52.066;6.096;2024-02-26T03:26:58;20;19;
47741;PMS5003;33504;52.066;6.096;2024-02-26T03:29:25;22;21;
47741;PMS5003;33504;52.066;6.096;2024-02-26T03:31:53;21;20;
47741;PMS5003;33504;52.066;6.096;2024-02-26T03:34:20;19;18;
47741;PMS5003;33504;52.066;6.096;2024-02-26T03:36:48;25;24;
47741;PMS5003;33504;52.066;6.096;2024-02-26T03:39:14;17;16;
47741;PMS5003;33504;52.066;6.096;2024-02-26T03:41:41;19;19;
47741;PMS5003;33504;52.066;6.096;2024-02-26T03:44:09;20;19;
47741;PMS5003;33504;52.066;6.096;2024-02-26T03:46:36;16;16;
47741;PMS5003;33504;52.066;6.096;2024-02-26T03:49:03;21;20;
47741;PMS5003;33504;52.066;6.096;2024-02-26T03:51:30;22;19;
47741;PMS5003;33504;52.066;6.096;2024-02-26T03:53:57;20;19;
47741;PMS5003;33504;52.066;6.096;2024-02-26T03:56:25;22;21;
47741;PMS5003;33504;52.066;6.096;2024-02-26T03:58:53;22;20;
47741;PMS5003;33504;52.066;6.096;2024-02-26T04:01:20;20;19;
47741;PMS5003;33504;52.066;6.096;2024-02-26T04:03:47;24;23;
47741;PMS5003;33504;52.066;6.096;2024-02-26T04:06:15;18;17;
47741;PMS5003;33504;52.066;6.096;2024-02-26T04:08:42;20;18;
47741;PMS5003;33504;52.066;6.096;2024-02-26T04:11:09;19;19;
47741;PMS5003;33504;52.066;6.096;2024-02-26T04:13:36;19;19;
47741;PMS5003;33504;52.066;6.096;2024-02-26T04:16:03;20;20;
47741;PMS5003;33504;52.066;6.096;2024-02-26T04:18:31;21;21;
47741;PMS5003;33504;52.066;6.096;2024-02-26T04:20:58;23;22;
47741;PMS5003;33504;52.066;6.096;2024-02-26T04:23:26;20;20;
47741;PMS5003;33504;52.066;6.096;2024-02-26T04:25:53;22;21;
47741;PMS5003;33504;52.066;6.096;2024-02-26T04:28:21;21;20;
47741;PMS5003;33504;52.066;6.096;2024-02-26T04:30:48;21;21;
47741;PMS5003;33504;52.066;6.096;2024-02-26T04:33:15;17;17;
47741;PMS5003;33504;52.066;6.096;2024-02-26T04:35:42;21;20;
47741;PMS5003;33504;52.066;6.096;2024-02-26T04:38:09;19;17;
47741;PMS5003;33504;52.066;6.096;2024-02-26T04:40:37;18;18;
47741;PMS5003;33504;52.066;6.096;2024-02-26T04:43:04;19;18;
47741;PMS5003;33504;52.066;6.096;2024-02-26T04:45:31;23;23;
47741;PMS5003;33504;52.066;6.096;2024-02-26T04:47:58;22;22;
47741;PMS5003;33504;52.066;6.096;2024-02-26T04:50:26;18;17;
47741;PMS5003;33504;52.066;6.096;2024-02-26T04:52:53;17;16;
47741;PMS5003;33504;52.066;6.096;2024-02-26T04:55:20;19;18;
47741;PMS5003;33504;52.066;6.096;2024-02-26T04:57:48;20;20;
47741;PMS5003;33504;52.066;6.096;2024-02-26T05:00:15;20;19;
47741;PMS5003;33504;52.066;6.096;2024-02-26T05:02:42;18;18;
47741;PMS5003;33504;52.066;6.096;2024-02-26T05:05:09;16;16;
47741;PMS5003;33504;52.066;6.096;2024-02-26T05:07:39;18;18;
47741;PMS5003;33504;52.066;6.096;2024-02-26T05:10:06;18;15;
47741;PMS5003;33504;52.066;6.096;2024-02-26T05:12:34;15;15;
47741;PMS5003;33504;52.066;6.096;2024-02-26T05:15:01;18;17;
47741;PMS5003;33504;52.066;6.096;2024-02-26T05:17:28;18;17;
47741;PMS5003;33504;52.066;6.096;2024-02-26T05:19:55;20;20;
47741;PMS5003;33504;52.066;6.096;2024-02-26T05:22:22;18;18;
47741;PMS5003;33504;52.066;6.096;2024-02-26T05:24:49;21;20;
47741;PMS5003;33504;52.066;6.096;2024-02-26T05:27:16;20;19;
47741;PMS5003;33504;52.066;6.096;2024-02-26T05:29:43;20;19;
47741;PMS5003;33504;52.066;6.096;2024-02-26T05:32:10;18;18;
47741;PMS5003;33504;52.066;6.096;2024-02-26T05:34:37;21;21;
47741;PMS5003;33504;52.066;6.096;2024-02-26T05:37:05;24;21;
47741;PMS5003;33504;52.066;6.096;2024-02-26T05:39:32;18;18;
47741;PMS5003;33504;52.066;6.096;2024-02-26T05:41:59;20;20;
47741;PMS5003;33504;52.066;6.096;2024-02-26T05:44:27;22;21;
47741;PMS5003;33504;52.066;6.096;2024-02-26T05:46:54;20;19;
47741;PMS5003;33504;52.066;6.096;2024-02-26T05:49:21;23;22;
47741;PMS5003;33504;52.066;6.096;2024-02-26T05:51:48;19;18;
47741;PMS5003;33504;52.066;6.096;2024-02-26T05:54:15;19;18;
47741;PMS5003;33504;52.066;6.096;2024-02-26T05:56:42;18;18;
47741;PMS5003;33504;52.066;6.096;2024-02-26T05:59:09;20;20;
47741;PMS5003;33504;52.066;6.096;2024-02-26T06:01:36;21;19;
47741;PMS5003;33504;52.066;6.096;2024-02-26T06:04:03;24;22;
47741;PMS5003;33504;52.066;6.096;2024-02-26T06:06:31;24;23;
47741;PMS5003;33504;52.066;6.096;2024-02-26T06:08:57;21;20;
47741;PMS5003;33504;52.066;6.096;2024-02-26T06:11:25;19;18;
47741;PMS5003;33504;52.066;6.096;2024-02-26T06:13:52;22;20;
47741;PMS5003;33504;52.066;6.096;2024-02-26T06:16:19;17;17;
47741;PMS5003;33504;52.066;6.096;2024-02-26T06:18:46;24;22;
47741;PMS5003;33504;52.066;6.096;2024-02-26T06:21:14;22;22;
47741;PMS5003;33504;52.066;6.096;2024-02-26T06:23:41;25;23;
47741;PMS5003;33504;52.066;6.096;2024-02-26T06:26:08;20;19;
47741;PMS5003;33504;52.066;6.096;2024-02-26T06:28:35;22;21;
47741;PMS5003;33504;52.066;6.096;2024-02-26T06:31:02;22;21;
47741;PMS5003;33504;52.066;6.096;2024-02-26T06:33:30;20;20;
47741;PMS5003;33504;52.066;6.096;2024-02-26T06:35:57;25;24;
47741;PMS5003;33504;52.066;6.096;2024-02-26T06:38:24;23;22;
47741;PMS5003;33504;52.066;6.096;2024-02-26T06:40:52;23;21;
47741;PMS5003;33504;52.066;6.096;2024-02-26T06:43:20;23;23;
47741;PMS5003;33504;52.066;6.096;2024-02-26T06:45:48;23;23;
47741;PMS5003;33504;52.066;6.096;2024-02-26T06:48:15;25;25;
47741;PMS5003;33504;52.066;6.096;2024-02-26T06:50:42;21;20;
47741;PMS5003;33504;52.066;6.096;2024-02-26T06:53:10;21;20;
47741;PMS5003;33504;52.066;6.096;2024-02-26T06:55:38;23;23;
47741;PMS5003;33504;52.066;6.096;2024-02-26T06:58:05;24;22;
47741;PMS5003;33504;52.066;6.096;2024-02-26T07:00:33;23;20;
47741;PMS5003;33504;52.066;6.096;2024-02-26T07:03:00;21;21;
47741;PMS5003;33504;52.066;6.096;2024-02-26T07:05:27;20;20;
47741;PMS5003;33504;52.066;6.096;2024-02-26T07:07:55;25;24;
47741;PMS5003;33504;52.066;6.096;2024-02-26T07:10:22;24;24;
47741;PMS5003;33504;52.066;6.096;2024-02-26T07:12:49;23;22;
47741;PMS5003;33504;52.066;6.096;2024-02-26T07:15:17;24;22;
47741;PMS5003;33504;52.066;6.096;2024-02-26T07:17:44;25;24;
47741;PMS5003;33504;52.066;6.096;2024-02-26T07:20:11;23;23;
47741;PMS5003;33504;52.066;6.096;2024-02-26T07:22:38;29;28;
47741;PMS5003;33504;52.066;6.096;2024-02-26T07:25:06;24;24;
47741;PMS5003;33504;52.066;6.096;2024-02-26T07:27:33;26;24;
47741;PMS5003;33504;52.066;6.096;2024-02-26T07:30:02;28;26;
47741;PMS5003;33504;52.066;6.096;2024-02-26T07:32:29;30;29;
47741;PMS5003;33504;52.066;6.096;2024-02-26T07:34:57;34;30;
47741;PMS5003;33504;52.066;6.096;2024-02-26T07:37:24;27;27;
47741;PMS5003;33504;52.066;6.096;2024-02-26T07:39:52;32;30;
47741;PMS5003;33504;52.066;6.096;2024-02-26T07:42:19;31;29;
47741;PMS5003;33504;52.066;6.096;2024-02-26T07:44:47;27;27;
47741;PMS5003;33504;52.066;6.096;2024-02-26T07:47:14;29;27;
47741;PMS5003;33504;52.066;6.096;2024-02-26T07:49:41;33;31;
47741;PMS5003;33504;52.066;6.096;2024-02-26T07:52:09;35;34;
47741;PMS5003;33504;52.066;6.096;2024-02-26T07:54:36;31;30;
47741;PMS5003;33504;52.066;6.096;2024-02-26T07:57:03;28;27;
47741;PMS5003;33504;52.066;6.096;2024-02-26T07:59:30;35;34;
47741;PMS5003;33504;52.066;6.096;2024-02-26T08:01:58;34;31;
47741;PMS5003;33504;52.066;6.096;2024-02-26T08:04:25;28;28;
47741;PMS5003;33504;52.066;6.096;2024-02-26T08:06:51;38;36;
47741;PMS5003;33504;52.066;6.096;2024-02-26T08:09:19;34;31;
47741;PMS5003;33504;52.066;6.096;2024-02-26T08:11:46;33;32;
47741;PMS5003;33504;52.066;6.096;2024-02-26T08:14:13;32;29;
47741;PMS5003;33504;52.066;6.096;2024-02-26T08:16:41;31;30;
47741;PMS5003;33504;52.066;6.096;2024-02-26T08:19:08;36;35;
47741;PMS5003;33504;52.066;6.096;2024-02-26T08:21:35;30;28;
47741;PMS5003;33504;52.066;6.096;2024-02-26T08:24:02;30;28;
47741;PMS5003;33504;52.066;6.096;2024-02-26T08:26:30;33;32;
47741;PMS5003;33504;52.066;6.096;2024-02-26T08:28:57;34;32;
47741;PMS5003;33504;52.066;6.096;2024-02-26T08:31:24;31;29;
47741;PMS5003;33504;52.066;6.096;2024-02-26T08:33:52;33;30;
47741;PMS5003;33504;52.066;6.096;2024-02-26T08:36:19;32;30;
47741;PMS5003;33504;52.066;6.096;2024-02-26T08:38:46;29;27;
47741;PMS5003;33504;52.066;6.096;2024-02-26T08:41:13;28;28;
47741;PMS5003;33504;52.066;6.096;2024-02-26T08:43:40;32;30;
47741;PMS5003;33504;52.066;6.096;2024-02-26T08:46:08;36;34;
47741;PMS5003;33504;52.066;6.096;2024-02-26T08:48:36;30;29;
47741;PMS5003;33504;52.066;6.096;2024-02-26T08:51:04;32;31;
47741;PMS5003;33504;52.066;6.096;2024-02-26T08:53:32;33;31;
47741;PMS5003;33504;52.066;6.096;2024-02-26T08:56:00;28;26;
47741;PMS5003;33504;52.066;6.096;2024-02-26T08:58:28;36;31;
47741;PMS5003;33504;52.066;6.096;2024-02-26T09:00:55;34;32;
47741;PMS5003;33504;52.066;6.096;2024-02-26T09:03:22;35;32;
47741;PMS5003;33504;52.066;6.096;2024-02-26T09:05:49;30;29;
47741;PMS5003;33504;52.066;6.096;2024-02-26T09:08:16;29;28;
47741;PMS5003;33504;52.066;6.096;2024-02-26T09:10:43;33;30;
47741;PMS5003;33504;52.066;6.096;2024-02-26T09:13:11;29;26;
47741;PMS5003;33504;52.066;6.096;2024-02-26T09:15:38;32;30;
47741;PMS5003;33504;52.066;6.096;2024-02-26T09:18:05;30;29;
47741;PMS5003;33504;52.066;6.096;2024-02-26T09:20:32;31;30;
47741;PMS5003;33504;52.066;6.096;2024-02-26T09:23:00;37;33;
47741;PMS5003;33504;52.066;6.096;2024-02-26T09:25:27;27;26;
47741;PMS5003;33504;52.066;6.096;2024-02-26T09:27:54;33;30;
47741;PMS5003;33504;52.066;6.096;2024-02-26T09:30:21;29;28;
47741;PMS5003;33504;52.066;6.096;2024-02-26T09:32:48;30;28;
47741;PMS5003;33504;52.066;6.096;2024-02-26T09:35:15;35;34;
47741;PMS5003;33504;52.066;6.096;2024-02-26T09:37:42;36;31;
47741;PMS5003;33504;52.066;6.096;2024-02-26T09:40:10;30;27;
47741;PMS5003;33504;52.066;6.096;2024-02-26T09:42:38;35;33;
47741;PMS5003;33504;52.066;6.096;2024-02-26T09:45:10;25;25;
47741;PMS5003;33504;52.066;6.096;2024-02-26T09:47:43;29;28;
47741;PMS5003;33504;52.066;6.096;2024-02-26T09:50:11;35;33;
47741;PMS5003;33504;52.066;6.096;2024-02-26T09:52:39;28;27;
47741;PMS5003;33504;52.066;6.096;2024-02-26T09:55:08;32;29;
47741;PMS5003;33504;52.066;6.096;2024-02-26T09:57:36;34;30;
47741;PMS5003;33504;52.066;6.096;2024-02-26T10:00:04;30;27;
47741;PMS5003;33504;52.066;6.096;2024-02-26T10:02:35;29;28;
47741;PMS5003;33504;52.066;6.096;2024-02-26T10:05:04;33;31;
47741;PMS5003;33504;52.066;6.096;2024-02-26T10:07:33;35;34;
47741;PMS5003;33504;52.066;6.096;2024-02-26T10:10:02;28;25;
47741;PMS5003;33504;52.066;6.096;2024-02-26T10:12:30;24;23;
47741;PMS5003;33504;52.066;6.096;2024-02-26T10:14:58;34;32;
47741;PMS5003;33504;52.066;6.096;2024-02-26T10:17:25;30;29;
47741;PMS5003;33504;52.066;6.096;2024-02-26T10:19:53;28;26;
47741;PMS5003;33504;52.066;6.096;2024-02-26T10:22:21;30;27;
47741;PMS5003;33504;52.066;6.096;2024-02-26T10:24:49;24;23;
47741;PMS5003;33504;52.066;6.096;2024-02-26T10:27:16;23;21;
47741;PMS5003;33504;52.066;6.096;2024-02-26T10:29:45;24;22;
47741;PMS5003;33504;52.066;6.096;2024-02-26T10:32:12;32;30;
47741;PMS5003;33504;52.066;6.096;2024-02-26T10:34:39;26;24;
47741;PMS5003;33504;52.066;6.096;2024-02-26T10:37:06;31;30;
47741;PMS5003;33504;52.066;6.096;2024-02-26T10:39:36;34;31;
47741;PMS5003;33504;52.066;6.096;2024-02-26T10:42:03;28;27;
47741;PMS5003;33504;52.066;6.096;2024-02-26T10:44:30;29;28;
47741;PMS5003;33504;52.066;6.096;2024-02-26T10:46:57;30;29;
47741;PMS5003;33504;52.066;6.096;2024-02-26T10:49:25;28;27;
47741;PMS5003;33504;52.066;6.096;2024-02-26T10:51:53;27;26;
47741;PMS5003;33504;52.066;6.096;2024-02-26T10:54:23;33;27;
47741;PMS5003;33504;52.066;6.096;2024-02-26T10:56:54;27;25;
47741;PMS5003;33504;52.066;6.096;2024-02-26T10:59:23;24;24;
47741;PMS5003;33504;52.066;6.096;2024-02-26T11:01:50;30;29;
47741;PMS5003;33504;52.066;6.096;2024-02-26T11:04:19;26;25;
47741;PMS5003;33504;52.066;6.096;2024-02-26T11:06:47;31;28;
47741;PMS5003;33504;52.066;6.096;2024-02-26T11:09:16;26;25;
47741;PMS5003;33504;52.066;6.096;2024-02-26T11:11:46;24;22;
47741;PMS5003;33504;52.066;6.096;2024-02-26T11:14:15;24;23;
47741;PMS5003;33504;52.066;6.096;2024-02-26T11:16:43;26;24;
47741;PMS5003;33504;52.066;6.096;2024-02-26T11:19:11;33;31;
47741;PMS5003;33504;52.066;6.096;2024-02-26T11:21:38;24;22;
47741;PMS5003;33504;52.066;6.096;2024-02-26T11:24:07;29;28;
47741;PMS5003;33504;52.066;6.096;2024-02-26T11:26:39;29;26;
47741;PMS5003;33504;52.066;6.096;2024-02-26T11:29:09;29;28;
47741;PMS5003;33504;52.066;6.096;2024-02-26T11:31:39;28;25;
47741;PMS5003;33504;52.066;6.096;2024-02-26T11:34:07;23;22;
47741;PMS5003;33504;52.066;6.096;2024-02-26T11:36:36;24;24;
47741;PMS5003;33504;52.066;6.096;2024-02-26T11:39:03;25;24;
47741;PMS5003;33504;52.066;6.096;2024-02-26T11:41:31;21;21;
47741;PMS5003;33504;52.066;6.096;2024-02-26T11:43:59;26;25;
47741;PMS5003;33504;52.066;6.096;2024-02-26T11:46:28;26;24;
47741;PMS5003;33504;52.066;6.096;2024-02-26T11:48:58;27;26;
47741;PMS5003;33504;52.066;6.096;2024-02-26T11:51:26;17;17;
47741;PMS5003;33504;52.066;6.096;2024-02-26T11:53:58;24;22;
47741;PMS5003;33504;52.066;6.096;2024-02-26T11:56:25;25;23;
47741;PMS5003;33504;52.066;6.096;2024-02-26T11:58:56;21;20;
47741;PMS5003;33504;52.066;6.096;2024-02-26T12:01:40;20;20;
47741;PMS5003;33504;52.066;6.096;2024-02-26T12:04:11;24;22;
47741;PMS5003;33504;52.066;6.096;2024-02-26T12:06:40;22;21;
47741;PMS5003;33504;52.066;6.096;2024-02-26T12:09:09;19;19;
47741;PMS5003;33504;52.066;6.096;2024-02-26T12:11:37;22;20;
47741;PMS5003;33504;52.066;6.096;2024-02-26T12:14:05;23;21;
47741;PMS5003;33504;52.066;6.096;2024-02-26T12:16:34;20;19;
47741;PMS5003;33504;52.066;6.096;2024-02-26T12:19:03;18;17;
47741;PMS5003;33504;52.066;6.096;2024-02-26T12:21:31;19;18;
47741;PMS5003;33504;52.066;6.096;2024-02-26T12:24:06;19;19;
47741;PMS5003;33504;52.066;6.096;2024-02-26T12:26:37;21;21;
47741;PMS5003;33504;52.066;6.096;2024-02-26T12:29:04;20;19;
47741;PMS5003;33504;52.066;6.096;2024-02-26T12:31:31;17;17;
47741;PMS5003;33504;52.066;6.096;2024-02-26T12:33:59;17;17;
47741;PMS5003;33504;52.066;6.096;2024-02-26T12:36:26;22;20;
47741;PMS5003;33504;52.066;6.096;2024-02-26T12:38:53;21;21;
47741;PMS5003;33504;52.066;6.096;2024-02-26T12:41:21;20;19;
47741;PMS5003;33504;52.066;6.096;2024-02-26T12:43:48;19;19;
47741;PMS5003;33504;52.066;6.096;2024-02-26T12:46:16;22;19;
47741;PMS5003;33504;52.066;6.096;2024-02-26T12:48:43;20;20;
47741;PMS5003;33504;52.066;6.096;2024-02-26T12:51:10;22;21;
47741;PMS5003;33504;52.066;6.096;2024-02-26T12:53:40;21;21;
47741;PMS5003;33504;52.066;6.096;2024-02-26T12:56:08;18;17;
47741;PMS5003;33504;52.066;6.096;2024-02-26T12:58:36;23;22;
47741;PMS5003;33504;52.066;6.096;2024-02-26T13:01:05;21;20;
47741;PMS5003;33504;52.066;6.096;2024-02-26T13:03:32;22;21;
47741;PMS5003;33504;52.066;6.096;2024-02-26T13:06:02;20;20;
47741;PMS5003;33504;52.066;6.096;2024-02-26T13:08:32;20;19;
47741;PMS5003;33504;52.066;6.096;2024-02-26T13:10:59;19;19;
47741;PMS5003;33504;52.066;6.096;2024-02-26T13:13:27;21;21;
47741;PMS5003;33504;52.066;6.096;2024-02-26T13:16:00;22;21;
47741;PMS5003;33504;52.066;6.096;2024-02-26T13:18:29;19;18;
47741;PMS5003;33504;52.066;6.096;2024-02-26T13:21:06;19;18;
47741;PMS5003;33504;52.066;6.096;2024-02-26T13:23:34;23;22;
47741;PMS5003;33504;52.066;6.096;2024-02-26T13:26:01;22;20;
47741;PMS5003;33504;52.066;6.096;2024-02-26T13:28:28;20;19;
47741;PMS5003;33504;52.066;6.096;2024-02-26T13:30:55;18;17;
47741;PMS5003;33504;52.066;6.096;2024-02-26T13:33:24;27;24;
47741;PMS5003;33504;52.066;6.096;2024-02-26T13:35:53;18;17;
47741;PMS5003;33504;52.066;6.096;2024-02-26T13:38:21;22;22;
47741;PMS5003;33504;52.066;6.096;2024-02-26T13:40:49;18;17;
47741;PMS5003;33504;52.066;6.096;2024-02-26T13:43:17;18;18;
47741;PMS5003;33504;52.066;6.096;2024-02-26T13:45:45;14;14;
47741;PMS5003;33504;52.066;6.096;2024-02-26T13:48:13;21;20;
47741;PMS5003;33504;52.066;6.096;2024-02-26T13:50:41;20;19;
47741;PMS5003;33504;52.066;6.096;2024-02-26T13:53:09;18;18;
47741;PMS5003;33504;52.066;6.096;2024-02-26T13:55:36;18;17;
47741;PMS5003;33504;52.066;6.096;2024-02-26T13:58:03;20;19;
47741;PMS5003;33504;52.066;6.096;2024-02-26T14:00:31;20;20;
47741;PMS5003;33504;52.066;6.096;2024-02-26T14:02:58;18;17;
47741;PMS5003;33504;52.066;6.096;2024-02-26T14:05:25;18;18;
47741;PMS5003;33504;52.066;6.096;2024-02-26T14:07:52;23;22;
47741;PMS5003;33504;52.066;6.096;2024-02-26T14:10:19;17;17;
47741;PMS5003;33504;52.066;6.096;2024-02-26T14:12:47;19;18;
47741;PMS5003;33504;52.066;6.096;2024-02-26T14:15:14;22;21;
47741;PMS5003;33504;52.066;6.096;2024-02-26T14:17:41;17;15;
47741;PMS5003;33504;52.066;6.096;2024-02-26T14:20:09;18;18;
47741;PMS5003;33504;52.066;6.096;2024-02-26T14:22:36;20;18;
47741;PMS5003;33504;52.066;6.096;2024-02-26T14:25:04;19;18;
47741;PMS5003;33504;52.066;6.096;2024-02-26T14:27:31;22;20;
47741;PMS5003;33504;52.066;6.096;2024-02-26T14:29:58;22;21;
47741;PMS5003;33504;52.066;6.096;2024-02-26T14:32:25;18;18;
47741;PMS5003;33504;52.066;6.096;2024-02-26T14:34:52;25;23;
47741;PMS5003;33504;52.066;6.096;2024-02-26T14:37:20;24;22;
47741;PMS5003;33504;52.066;6.096;2024-02-26T14:39:46;20;17;
47741;PMS5003;33504;52.066;6.096;2024-02-26T14:42:13;16;15;
47741;PMS5003;33504;52.066;6.096;2024-02-26T14:44:41;20;19;
47741;PMS5003;33504;52.066;6.096;2024-02-26T14:47:08;25;24;
47741;PMS5003;33504;52.066;6.096;2024-02-26T14:49:35;22;20;
47741;PMS5003;33504;52.066;6.096;2024-02-26T14:52:03;16;16;
47741;PMS5003;33504;52.066;6.096;2024-02-26T14:54:30;19;18;
47741;PMS5003;33504;52.066;6.096;2024-02-26T14:56:58;18;17;
47741;PMS5003;33504;52.066;6.096;2024-02-26T14:59:25;18;18;
47741;PMS5003;33504;52.066;6.096;2024-02-26T15:01:52;17;16;
47741;PMS5003;33504;52.066;6.096;2024-02-26T15:04:19;16;15;
47741;PMS5003;33504;52.066;6.096;2024-02-26T15:06:46;17;17;
47741;PMS5003;33504;52.066;6.096;2024-02-26T15:09:14;16;15;
47741;PMS5003;33504;52.066;6.096;2024-02-26T15:11:41;18;16;
47741;PMS5003;33504;52.066;6.096;2024-02-26T15:14:09;16;16;
47741;PMS5003;33504;52.066;6.096;2024-02-26T15:16:36;16;15;
47741;PMS5003;33504;52.066;6.096;2024-02-26T15:19:04;19;17;
47741;PMS5003;33504;52.066;6.096;2024-02-26T15:21:31;13;13;
47741;PMS5003;33504;52.066;6.096;2024-02-26T15:23:58;19;19;
47741;PMS5003;33504;52.066;6.096;2024-02-26T15:26:25;20;16;
47741;PMS5003;33504;52.066;6.096;2024-02-26T15:28:52;23;23;
47741;PMS5003;33504;52.066;6.096;2024-02-26T15:31:19;20;19;
47741;PMS5003;33504;52.066;6.096;2024-02-26T15:33:46;20;18;
47741;PMS5003;33504;52.066;6.096;2024-02-26T15:36:13;20;19;
47741;PMS5003;33504;52.066;6.096;2024-02-26T15:38:41;22;21;
47741;PMS5003;33504;52.066;6.096;2024-02-26T15:41:10;13;12;
47741;PMS5003;33504;52.066;6.096;2024-02-26T15:43:37;27;26;
47741;PMS5003;33504;52.066;6.096;2024-02-26T15:46:05;25;24;
47741;PMS5003;33504;52.066;6.096;2024-02-26T15:48:33;83;77;
47741;PMS5003;33504;52.066;6.096;2024-02-26T15:51:00;33;30;
47741;PMS5003;33504;52.066;6.096;2024-02-26T15:53:27;45;43;
47741;PMS5003;33504;52.066;6.096;2024-02-26T15:55:54;30;29;
47741;PMS5003;33504;52.066;6.096;2024-02-26T15:58:21;24;22;
47741;PMS5003;33504;52.066;6.096;2024-02-26T16:00:48;28;26;
47741;PMS5003;33504;52.066;6.096;2024-02-26T16:03:15;34;30;
47741;PMS5003;33504;52.066;6.096;2024-02-26T16:05:43;25;25;
47741;PMS5003;33504;52.066;6.096;2024-02-26T16:08:10;29;26;
47741;PMS5003;33504;52.066;6.096;2024-02-26T16:10:43;30;28;
47741;PMS5003;33504;52.066;6.096;2024-02-26T16:13:10;23;21;
47741;PMS5003;33504;52.066;6.096;2024-02-26T16:15:37;19;19;
47741;PMS5003;33504;52.066;6.096;2024-02-26T16:18:09;17;17;
47741;PMS5003;33504;52.066;6.096;2024-02-26T16:20:36;15;15;